sensor_id;sensor_type;location;lat;lon;timestamp;temperature;humidity
11497;DHT22;5805;51.542;7.230;2024-03-17T00:01:47;9.70;99.90
11497;DHT22;5805;51.542;7.230;2024-03-17T00:04:12;9.70;99.90
11497;DHT22;5805;51.542;7.230;2024-03-17T00:06:38;9.70;99.90
11497;DHT22;5805;51.542;7.230;2024-03-17T00:09:03;9.60;99.90
11497;DHT22;5805;51.542;7.230;2024-03-17T00:11:29;9.50;99.90
11497;DHT22;5805;51.542;7.230;2024-03-17T00:13:54;9.80;99.90
11497;DHT22;5805;51.542;7.230;2024-03-17T00:16:20;9.50;99.90
11497;DHT22;5805;51.542;7.230;2024-03-17T00:18:46;9.40;99.90
11497;DHT22;5805;51.542;7.230;2024-03-17T00:21:12;9.40;99.90
11497;DHT22;5805;51.542;7.230;2024-03-17T00:23:38;9.30;99.90
11497;DHT22;5805;51.542;7.230;2024-03-17T00:26:03;9.20;99.90
11497;DHT22;5805;51.542;7.230;2024-03-17T00:28:29;9.20;99.90
11497;DHT22;5805;51.542;7.230;2024-03-17T00:30:54;9.20;99.90
11497;DHT22;5805;51.542;7.230;2024-03-17T00:33:20;9.10;99.90
11497;DHT22;5805;51.542;7.230;2024-03-17T00:35:45;9.00;99.90
11497;DHT22;5805;51.542;7.230;2024-03-17T00:38:11;9.00;99.90
11497;DHT22;5805;51.542;7.230;2024-03-17T00:40:39;8.90;99.90
11497;DHT22;5805;51.542;7.230;2024-03-17T00:43:05;8.80;99.90
11497;DHT22;5805;51.542;7.230;2024-03-17T00:45:30;8.80;99.90
11497;DHT22;5805;51.542;7.230;2024-03-17T00:47:56;8.70;99.90
11497;DHT22;5805;51.542;7.230;2024-03-17T00:50:24;8.80;99.90
11497;DHT22;5805;51.542;7.230;2024-03-17T00:52:50;8.60;99.90
11497;DHT22;5805;51.542;7.230;2024-03-17T00:55:15;8.60;99.90
11497;DHT22;5805;51.542;7.230;2024-03-17T00:57:41;8.50;99.90
11497;DHT22;5805;51.542;7.230;2024-03-17T01:00:07;8.50;99.90
11497;DHT22;5805;51.542;7.230;2024-03-17T01:02:33;8.50;99.90
11497;DHT22;5805;51.542;7.230;2024-03-17T01:04:58;8.50;99.90
11497;DHT22;5805;51.542;7.230;2024-03-17T01:07:24;8.40;99.90
11497;DHT22;5805;51.542;7.230;2024-03-17T01:09:49;8.30;99.90
11497;DHT22;5805;51.542;7.230;2024-03-17T01:12:15;8.20;99.90
11497;DHT22;5805;51.542;7.230;2024-03-17T01:14:40;8.20;99.90
11497;DHT22;5805;51.542;7.230;2024-03-17T01:17:06;8.30;99.90
11497;DHT22;5805;51.542;7.230;2024-03-17T01:19:32;8.20;99.90
11497;DHT22;5805;51.542;7.230;2024-03-17T01:21:59;8.20;99.90
11497;DHT22;5805;51.542;7.230;2024-03-17T01:24:25;8.10;99.90
11497;DHT22;5805;51.542;7.230;2024-03-17T01:26:50;8.20;99.90
11497;DHT22;5805;51.542;7.230;2024-03-17T01:29:16;8.20;99.90
11497;DHT22;5805;51.542;7.230;2024-03-17T01:31:41;8.10;99.90
11497;DHT22;5805;51.542;7.230;2024-03-17T01:34:07;9.60;99.90
11497;DHT22;5805;51.542;7.230;2024-03-17T01:36:32;8.10;99.90
11497;DHT22;5805;51.542;7.230;2024-03-17T01:38:59;8.10;99.90
11497;DHT22;5805;51.542;7.230;2024-03-17T01:41:25;8.10;99.90
11497;DHT22;5805;51.542;7.230;2024-03-17T01:43:50;8.10;99.90
11497;DHT22;5805;51.542;7.230;2024-03-17T01:46:17;8.10;99.90
11497;DHT22;5805;51.542;7.230;2024-03-17T01:48:42;8.20;99.90
11497;DHT22;5805;51.542;7.230;2024-03-17T01:51:10;8.20;99.90
11497;DHT22;5805;51.542;7.230;2024-03-17T01:53:37;8.20;99.90
11497;DHT22;5805;51.542;7.230;2024-03-17T01:56:04;8.20;99.90
11497;DHT22;5805;51.542;7.230;2024-03-17T01:58:30;8.20;99.90
11497;DHT22;5805;51.542;7.230;2024-03-17T02:00:57;8.10;99.90
11497;DHT22;5805;51.542;7.230;2024-03-17T02:03:22;8.10;99.90
11497;DHT22;5805;51.542;7.230;2024-03-17T02:05:48;8.10;99.90
11497;DHT22;5805;51.542;7.230;2024-03-17T02:08:13;8.10;99.90
11497;DHT22;5805;51.542;7.230;2024-03-17T02:10:39;8.10;99.90
11497;DHT22;5805;51.542;7.230;2024-03-17T02:13:05;8.10;99.90
11497;DHT22;5805;51.542;7.230;2024-03-17T02:15:31;8.10;99.90
11497;DHT22;5805;51.542;7.230;2024-03-17T02:17:57;8.10;99.90
11497;DHT22;5805;51.542;7.230;2024-03-17T02:20:22;8.00;99.90
11497;DHT22;5805;51.542;7.230;2024-03-17T02:22:48;8.10;99.90
11497;DHT22;5805;51.542;7.230;2024-03-17T02:25:13;8.10;99.90
11497;DHT22;5805;51.542;7.230;2024-03-17T02:27:39;8.00;99.90
11497;DHT22;5805;51.542;7.230;2024-03-17T02:30:05;8.10;99.90
11497;DHT22;5805;51.542;7.230;2024-03-17T02:32:30;8.10;99.90
11497;DHT22;5805;51.542;7.230;2024-03-17T02:34:56;8.10;99.90
11497;DHT22;5805;51.542;7.230;2024-03-17T02:37:21;8.10;99.90
11497;DHT22;5805;51.542;7.230;2024-03-17T02:39:47;8.10;99.90
11497;DHT22;5805;51.542;7.230;2024-03-17T02:42:12;8.10;99.90
11497;DHT22;5805;51.542;7.230;2024-03-17T02:44:38;8.20;99.90
11497;DHT22;5805;51.542;7.230;2024-03-17T02:47:08;8.20;99.90
11497;DHT22;5805;51.542;7.230;2024-03-17T02:49:33;8.20;99.90
11497;DHT22;5805;51.542;7.230;2024-03-17T02:51:59;8.20;99.90
11497;DHT22;5805;51.542;7.230;2024-03-17T02:54:24;8.20;99.90
11497;DHT22;5805;51.542;7.230;2024-03-17T02:56:50;8.30;99.90
11497;DHT22;5805;51.542;7.230;2024-03-17T02:59:15;8.30;99.90
11497;DHT22;5805;51.542;7.230;2024-03-17T03:01:41;8.40;99.90
11497;DHT22;5805;51.542;7.230;2024-03-17T03:04:06;8.40;99.90
11497;DHT22;5805;51.542;7.230;2024-03-17T03:06:33;8.40;99.90
11497;DHT22;5805;51.542;7.230;2024-03-17T03:08:59;8.40;99.90
11497;DHT22;5805;51.542;7.230;2024-03-17T03:11:24;8.30;99.90
11497;DHT22;5805;51.542;7.230;2024-03-17T03:13:50;8.30;99.90
11497;DHT22;5805;51.542;7.230;2024-03-17T03:16:15;8.20;99.90
11497;DHT22;5805;51.542;7.230;2024-03-17T03:18:41;8.20;99.90
11497;DHT22;5805;51.542;7.230;2024-03-17T03:21:07;8.20;99.90
11497;DHT22;5805;51.542;7.230;2024-03-17T03:23:33;8.20;99.90
11497;DHT22;5805;51.542;7.230;2024-03-17T03:26:01;8.20;99.90
11497;DHT22;5805;51.542;7.230;2024-03-17T03:28:27;8.20;99.90
11497;DHT22;5805;51.542;7.230;2024-03-17T03:30:53;8.20;99.90
11497;DHT22;5805;51.542;7.230;2024-03-17T03:33:19;8.20;99.90
11497;DHT22;5805;51.542;7.230;2024-03-17T03:35:44;8.20;99.90
11497;DHT22;5805;51.542;7.230;2024-03-17T03:38:10;8.20;99.90
11497;DHT22;5805;51.542;7.230;2024-03-17T03:40:35;8.20;99.90
11497;DHT22;5805;51.542;7.230;2024-03-17T03:43:01;8.10;99.90
11497;DHT22;5805;51.542;7.230;2024-03-17T03:45:26;8.10;99.90
11497;DHT22;5805;51.542;7.230;2024-03-17T03:50:20;8.10;99.90
11497;DHT22;5805;51.542;7.230;2024-03-17T03:52:46;8.20;99.90
11497;DHT22;5805;51.542;7.230;2024-03-17T03:55:13;9.50;99.90
11497;DHT22;5805;51.542;7.230;2024-03-17T03:57:38;8.30;99.90
11497;DHT22;5805;51.542;7.230;2024-03-17T04:00:04;8.30;99.90
11497;DHT22;5805;51.542;7.230;2024-03-17T04:02:30;8.30;99.90
11497;DHT22;5805;51.542;7.230;2024-03-17T04:04:55;8.40;99.90
11497;DHT22;5805;51.542;7.230;2024-03-17T04:07:21;8.40;99.90
11497;DHT22;5805;51.542;7.230;2024-03-17T04:09:46;8.30;99.90
11497;DHT22;5805;51.542;7.230;2024-03-17T04:12:12;8.40;99.90
11497;DHT22;5805;51.542;7.230;2024-03-17T04:14:37;8.30;99.90
11497;DHT22;5805;51.542;7.230;2024-03-17T04:17:03;8.40;99.90
11497;DHT22;5805;51.542;7.230;2024-03-17T04:19:28;8.50;99.90
11497;DHT22;5805;51.542;7.230;2024-03-17T04:21:54;8.40;99.90
11497;DHT22;5805;51.542;7.230;2024-03-17T04:24:20;8.40;99.90
11497;DHT22;5805;51.542;7.230;2024-03-17T04:26:45;8.40;99.90
11497;DHT22;5805;51.542;7.230;2024-03-17T04:29:11;8.50;99.90
11497;DHT22;5805;51.542;7.230;2024-03-17T04:31:36;8.50;99.90
11497;DHT22;5805;51.542;7.230;2024-03-17T04:34:02;8.50;99.90
11497;DHT22;5805;51.542;7.230;2024-03-17T04:36:27;8.60;99.90
11497;DHT22;5805;51.542;7.230;2024-03-17T04:38:53;8.60;99.90
11497;DHT22;5805;51.542;7.230;2024-03-17T04:41:18;8.70;99.90
11497;DHT22;5805;51.542;7.230;2024-03-17T04:43:44;8.70;99.90
11497;DHT22;5805;51.542;7.230;2024-03-17T04:46:09;8.70;99.90
11497;DHT22;5805;51.542;7.230;2024-03-17T04:48:35;8.70;99.90
11497;DHT22;5805;51.542;7.230;2024-03-17T04:51:00;8.70;99.90
11497;DHT22;5805;51.542;7.230;2024-03-17T04:53:26;8.60;99.90
11497;DHT22;5805;51.542;7.230;2024-03-17T04:56:03;8.60;99.90
11497;DHT22;5805;51.542;7.230;2024-03-17T04:58:28;8.50;99.90
11497;DHT22;5805;51.542;7.230;2024-03-17T05:00:54;8.60;99.90
11497;DHT22;5805;51.542;7.230;2024-03-17T05:03:19;8.50;99.90
11497;DHT22;5805;51.542;7.230;2024-03-17T05:05:45;8.50;99.90
11497;DHT22;5805;51.542;7.230;2024-03-17T05:08:10;8.40;99.90
11497;DHT22;5805;51.542;7.230;2024-03-17T05:10:36;8.40;99.90
11497;DHT22;5805;51.542;7.230;2024-03-17T05:13:01;8.40;99.90
11497;DHT22;5805;51.542;7.230;2024-03-17T05:15:27;8.40;99.90
11497;DHT22;5805;51.542;7.230;2024-03-17T05:17:52;8.40;99.90
11497;DHT22;5805;51.542;7.230;2024-03-17T05:20:18;8.40;99.90
11497;DHT22;5805;51.542;7.230;2024-03-17T05:22:43;8.30;99.90
11497;DHT22;5805;51.542;7.230;2024-03-17T05:25:09;8.30;99.90
11497;DHT22;5805;51.542;7.230;2024-03-17T05:27:34;8.30;99.90
11497;DHT22;5805;51.542;7.230;2024-03-17T05:30:00;8.20;99.90
11497;DHT22;5805;51.542;7.230;2024-03-17T05:32:25;8.30;99.90
11497;DHT22;5805;51.542;7.230;2024-03-17T05:34:51;8.30;99.90
11497;DHT22;5805;51.542;7.230;2024-03-17T05:37:16;8.20;99.90
11497;DHT22;5805;51.542;7.230;2024-03-17T05:39:42;8.20;99.90
11497;DHT22;5805;51.542;7.230;2024-03-17T05:42:07;8.20;99.90
11497;DHT22;5805;51.542;7.230;2024-03-17T05:44:33;8.10;99.90
11497;DHT22;5805;51.542;7.230;2024-03-17T05:46:58;8.20;99.90
11497;DHT22;5805;51.542;7.230;2024-03-17T05:49:24;8.20;99.90
11497;DHT22;5805;51.542;7.230;2024-03-17T05:51:49;8.10;99.90
11497;DHT22;5805;51.542;7.230;2024-03-17T05:54:15;8.10;99.90
11497;DHT22;5805;51.542;7.230;2024-03-17T05:56:40;8.00;99.90
11497;DHT22;5805;51.542;7.230;2024-03-17T05:59:06;8.10;99.90
11497;DHT22;5805;51.542;7.230;2024-03-17T06:01:31;8.10;99.90
11497;DHT22;5805;51.542;7.230;2024-03-17T06:03:57;8.10;99.90
11497;DHT22;5805;51.542;7.230;2024-03-17T06:06:22;8.10;99.90
11497;DHT22;5805;51.542;7.230;2024-03-17T06:08:48;8.20;99.90
11497;DHT22;5805;51.542;7.230;2024-03-17T06:11:13;8.20;99.90
11497;DHT22;5805;51.542;7.230;2024-03-17T06:13:38;8.20;99.90
11497;DHT22;5805;51.542;7.230;2024-03-17T06:16:04;8.20;99.90
11497;DHT22;5805;51.542;7.230;2024-03-17T06:18:30;8.30;99.90
11497;DHT22;5805;51.542;7.230;2024-03-17T06:20:55;8.40;99.90
11497;DHT22;5805;51.542;7.230;2024-03-17T06:23:21;8.40;99.90
11497;DHT22;5805;51.542;7.230;2024-03-17T06:25:47;8.50;99.90
11497;DHT22;5805;51.542;7.230;2024-03-17T06:28:15;8.50;99.90
11497;DHT22;5805;51.542;7.230;2024-03-17T06:30:41;8.80;99.90
11497;DHT22;5805;51.542;7.230;2024-03-17T06:33:07;9.10;99.90
11497;DHT22;5805;51.542;7.230;2024-03-17T06:35:32;9.20;99.90
11497;DHT22;5805;51.542;7.230;2024-03-17T06:38:01;9.60;99.90
11497;DHT22;5805;51.542;7.230;2024-03-17T06:40:27;9.70;99.90
11497;DHT22;5805;51.542;7.230;2024-03-17T06:42:52;10.70;99.90
11497;DHT22;5805;51.542;7.230;2024-03-17T06:45:18;10.20;99.90
11497;DHT22;5805;51.542;7.230;2024-03-17T06:47:43;10.20;99.90
11497;DHT22;5805;51.542;7.230;2024-03-17T06:50:09;10.40;99.90
11497;DHT22;5805;51.542;7.230;2024-03-17T06:52:34;10.40;99.90
11497;DHT22;5805;51.542;7.230;2024-03-17T06:55:00;11.50;99.90
11497;DHT22;5805;51.542;7.230;2024-03-17T06:57:25;12.40;98.80
11497;DHT22;5805;51.542;7.230;2024-03-17T06:59:51;12.70;98.50
11497;DHT22;5805;51.542;7.230;2024-03-17T07:02:17;13.40;90.60
11497;DHT22;5805;51.542;7.230;2024-03-17T07:04:43;13.40;91.10
11497;DHT22;5805;51.542;7.230;2024-03-17T07:07:08;12.70;90.60
11497;DHT22;5805;51.542;7.230;2024-03-17T07:09:34;12.70;91.20
11497;DHT22;5805;51.542;7.230;2024-03-17T07:11:59;12.70;91.60
11497;DHT22;5805;51.542;7.230;2024-03-17T07:14:25;12.00;92.20
11497;DHT22;5805;51.542;7.230;2024-03-17T07:16:50;11.60;94.00
11497;DHT22;5805;51.542;7.230;2024-03-17T07:19:16;11.60;94.30
11497;DHT22;5805;51.542;7.230;2024-03-17T07:21:41;12.50;94.90
11497;DHT22;5805;51.542;7.230;2024-03-17T07:24:07;11.70;94.60
11497;DHT22;5805;51.542;7.230;2024-03-17T07:26:32;11.80;95.00
11497;DHT22;5805;51.542;7.230;2024-03-17T07:28:58;14.40;87.60
11497;DHT22;5805;51.542;7.230;2024-03-17T07:31:23;14.70;75.00
11497;DHT22;5805;51.542;7.230;2024-03-17T07:33:49;14.10;74.30
11497;DHT22;5805;51.542;7.230;2024-03-17T07:36:15;13.70;77.90
11497;DHT22;5805;51.542;7.230;2024-03-17T07:38:40;13.50;78.80
11497;DHT22;5805;51.542;7.230;2024-03-17T07:41:07;13.30;80.00
11497;DHT22;5805;51.542;7.230;2024-03-17T07:43:37;14.00;81.00
11497;DHT22;5805;51.542;7.230;2024-03-17T07:46:08;13.50;82.20
11497;DHT22;5805;51.542;7.230;2024-03-17T07:48:36;13.50;80.50
11497;DHT22;5805;51.542;7.230;2024-03-17T07:51:06;13.60;80.80
11497;DHT22;5805;51.542;7.230;2024-03-17T07:53:33;13.60;78.90
11497;DHT22;5805;51.542;7.230;2024-03-17T07:58:24;13.60;78.80
11497;DHT22;5805;51.542;7.230;2024-03-17T08:00:50;13.50;78.10
11497;DHT22;5805;51.542;7.230;2024-03-17T08:03:16;13.60;78.90
11497;DHT22;5805;51.542;7.230;2024-03-17T08:05:41;13.60;80.30
11497;DHT22;5805;51.542;7.230;2024-03-17T08:08:06;13.50;78.00
11497;DHT22;5805;51.542;7.230;2024-03-17T08:10:32;13.60;79.50
11497;DHT22;5805;51.542;7.230;2024-03-17T08:12:57;13.60;78.20
11497;DHT22;5805;51.542;7.230;2024-03-17T08:15:23;13.60;76.70
11497;DHT22;5805;51.542;7.230;2024-03-17T08:17:48;13.60;77.40
11497;DHT22;5805;51.542;7.230;2024-03-17T08:20:14;13.70;78.90
11497;DHT22;5805;51.542;7.230;2024-03-17T08:22:39;13.70;79.90
11497;DHT22;5805;51.542;7.230;2024-03-17T08:25:05;14.00;75.50
11497;DHT22;5805;51.542;7.230;2024-03-17T08:27:31;14.10;74.40
11497;DHT22;5805;51.542;7.230;2024-03-17T08:29:56;14.10;74.00
11497;DHT22;5805;51.542;7.230;2024-03-17T08:32:22;14.10;74.40
11497;DHT22;5805;51.542;7.230;2024-03-17T08:34:47;14.10;75.80
11497;DHT22;5805;51.542;7.230;2024-03-17T08:37:13;14.30;74.10
11497;DHT22;5805;51.542;7.230;2024-03-17T08:39:38;14.40;75.00
11497;DHT22;5805;51.542;7.230;2024-03-17T08:42:04;14.70;72.30
11497;DHT22;5805;51.542;7.230;2024-03-17T08:44:29;14.80;73.50
11497;DHT22;5805;51.542;7.230;2024-03-17T08:46:55;15.00;71.10
11497;DHT22;5805;51.542;7.230;2024-03-17T08:49:20;15.10;71.10
11497;DHT22;5805;51.542;7.230;2024-03-17T08:51:46;15.10;71.70
11497;DHT22;5805;51.542;7.230;2024-03-17T08:54:11;15.00;69.10
11497;DHT22;5805;51.542;7.230;2024-03-17T08:56:37;15.00;69.40
11497;DHT22;5805;51.542;7.230;2024-03-17T08:59:02;14.70;69.30
11497;DHT22;5805;51.542;7.230;2024-03-17T09:01:28;14.80;70.70
11497;DHT22;5805;51.542;7.230;2024-03-17T09:03:53;14.80;73.10
11497;DHT22;5805;51.542;7.230;2024-03-17T09:06:19;15.20;69.60
11497;DHT22;5805;51.542;7.230;2024-03-17T09:08:44;15.40;69.20
11497;DHT22;5805;51.542;7.230;2024-03-17T09:11:14;15.50;70.30
11497;DHT22;5805;51.542;7.230;2024-03-17T09:13:39;15.90;68.10
11497;DHT22;5805;51.542;7.230;2024-03-17T09:18:33;16.20;68.20
11497;DHT22;5805;51.542;7.230;2024-03-17T09:21:03;16.30;67.10
11497;DHT22;5805;51.542;7.230;2024-03-17T09:23:30;16.40;66.70
11497;DHT22;5805;51.542;7.230;2024-03-17T09:26:03;16.70;64.90
11497;DHT22;5805;51.542;7.230;2024-03-17T09:28:29;16.70;61.00
11497;DHT22;5805;51.542;7.230;2024-03-17T09:30:56;16.50;60.30
11497;DHT22;5805;51.542;7.230;2024-03-17T09:33:22;16.40;59.80
11497;DHT22;5805;51.542;7.230;2024-03-17T09:36:07;16.40;60.50
11497;DHT22;5805;51.542;7.230;2024-03-17T09:38:34;16.30;59.50
11497;DHT22;5805;51.542;7.230;2024-03-17T09:41:00;16.30;60.10
11497;DHT22;5805;51.542;7.230;2024-03-17T09:43:27;16.30;59.50
11497;DHT22;5805;51.542;7.230;2024-03-17T09:45:53;16.30;59.70
11497;DHT22;5805;51.542;7.230;2024-03-17T09:48:19;16.20;60.20
11497;DHT22;5805;51.542;7.230;2024-03-17T09:50:53;16.20;60.80
11497;DHT22;5805;51.542;7.230;2024-03-17T09:55:49;16.30;61.20
11497;DHT22;5805;51.542;7.230;2024-03-17T09:58:17;16.30;59.80
11497;DHT22;5805;51.542;7.230;2024-03-17T10:00:43;16.40;59.70
11497;DHT22;5805;51.542;7.230;2024-03-17T10:03:12;16.40;60.30
11497;DHT22;5805;51.542;7.230;2024-03-17T10:06:00;16.70;59.60
11497;DHT22;5805;51.542;7.230;2024-03-17T10:08:26;16.80;58.40
11497;DHT22;5805;51.542;7.230;2024-03-17T10:10:54;17.00;58.50
11497;DHT22;5805;51.542;7.230;2024-03-17T10:13:20;17.00;59.10
11497;DHT22;5805;51.542;7.230;2024-03-17T10:15:49;17.30;57.40
11497;DHT22;5805;51.542;7.230;2024-03-17T10:18:22;17.20;56.80
11497;DHT22;5805;51.542;7.230;2024-03-17T10:20:48;17.20;57.40
11497;DHT22;5805;51.542;7.230;2024-03-17T10:23:13;17.10;57.80
11497;DHT22;5805;51.542;7.230;2024-03-17T10:25:40;17.10;56.80
11497;DHT22;5805;51.542;7.230;2024-03-17T10:28:15;17.10;56.50
11497;DHT22;5805;51.542;7.230;2024-03-17T10:30:41;17.10;57.10
11497;DHT22;5805;51.542;7.230;2024-03-17T10:33:19;17.10;57.50
11497;DHT22;5805;51.542;7.230;2024-03-17T10:35:46;17.00;56.90
11497;DHT22;5805;51.542;7.230;2024-03-17T10:38:12;17.00;57.00
11497;DHT22;5805;51.542;7.230;2024-03-17T10:40:39;17.00;56.10
11497;DHT22;5805;51.542;7.230;2024-03-17T10:43:05;16.90;56.80
11497;DHT22;5805;51.542;7.230;2024-03-17T10:45:32;16.90;57.30
11497;DHT22;5805;51.542;7.230;2024-03-17T10:47:59;16.90;56.80
11497;DHT22;5805;51.542;7.230;2024-03-17T10:50:25;16.90;57.20
11497;DHT22;5805;51.542;7.230;2024-03-17T10:52:55;16.90;57.80
11497;DHT22;5805;51.542;7.230;2024-03-17T10:55:24;17.00;57.30
11497;DHT22;5805;51.542;7.230;2024-03-17T10:57:52;17.10;56.80
11497;DHT22;5805;51.542;7.230;2024-03-17T11:00:20;17.10;57.90
11497;DHT22;5805;51.542;7.230;2024-03-17T11:02:46;17.20;57.20
11497;DHT22;5805;51.542;7.230;2024-03-17T11:07:44;17.30;55.60
11497;DHT22;5805;51.542;7.230;2024-03-17T11:10:15;17.50;55.80
11497;DHT22;5805;51.542;7.230;2024-03-17T11:12:43;17.50;54.80
11497;DHT22;5805;51.542;7.230;2024-03-17T11:17:51;17.60;55.30
11497;DHT22;5805;51.542;7.230;2024-03-17T11:20:24;17.70;54.80
11497;DHT22;5805;51.542;7.230;2024-03-17T11:22:52;17.90;54.70
11497;DHT22;5805;51.542;7.230;2024-03-17T11:28:08;18.00;53.50
11497;DHT22;5805;51.542;7.230;2024-03-17T11:38:57;18.30;52.60
11497;DHT22;5805;51.542;7.230;2024-03-17T11:41:45;18.40;52.30
11497;DHT22;5805;51.542;7.230;2024-03-17T11:51:47;18.30;52.80
11497;DHT22;5805;51.542;7.230;2024-03-17T11:54:15;18.40;51.20
11497;DHT22;5805;51.542;7.230;2024-03-17T11:56:41;18.40;51.80
11497;DHT22;5805;51.542;7.230;2024-03-17T11:59:06;18.50;51.60
11497;DHT22;5805;51.542;7.230;2024-03-17T12:01:32;18.50;50.30
11497;DHT22;5805;51.542;7.230;2024-03-17T12:03:58;18.40;50.20
11497;DHT22;5805;51.542;7.230;2024-03-17T12:06:24;18.40;50.50
11497;DHT22;5805;51.542;7.230;2024-03-17T12:08:49;18.30;50.50
11497;DHT22;5805;51.542;7.230;2024-03-17T12:11:17;18.40;50.80
11497;DHT22;5805;51.542;7.230;2024-03-17T12:13:43;18.40;50.60
11497;DHT22;5805;51.542;7.230;2024-03-17T12:16:12;18.50;50.50
11497;DHT22;5805;51.542;7.230;2024-03-17T12:18:38;18.60;50.70
11497;DHT22;5805;51.542;7.230;2024-03-17T12:21:03;18.50;51.10
11497;DHT22;5805;51.542;7.230;2024-03-17T12:23:29;18.60;50.70
11497;DHT22;5805;51.542;7.230;2024-03-17T12:25:54;18.40;50.70
11497;DHT22;5805;51.542;7.230;2024-03-17T12:28:20;18.40;51.20
11497;DHT22;5805;51.542;7.230;2024-03-17T12:30:46;18.40;51.40
11497;DHT22;5805;51.542;7.230;2024-03-17T12:33:12;18.50;51.10
11497;DHT22;5805;51.542;7.230;2024-03-17T12:35:39;18.40;50.80
11497;DHT22;5805;51.542;7.230;2024-03-17T12:38:22;18.30;51.40
11497;DHT22;5805;51.542;7.230;2024-03-17T12:40:48;18.30;51.30
11497;DHT22;5805;51.542;7.230;2024-03-17T12:43:13;18.30;51.80
11497;DHT22;5805;51.542;7.230;2024-03-17T12:45:39;18.40;51.90
11497;DHT22;5805;51.542;7.230;2024-03-17T12:48:13;18.30;51.10
11497;DHT22;5805;51.542;7.230;2024-03-17T12:50:45;18.30;51.60
11497;DHT22;5805;51.542;7.230;2024-03-17T12:53:16;18.20;51.70
11497;DHT22;5805;51.542;7.230;2024-03-17T12:55:41;18.30;52.00
11497;DHT22;5805;51.542;7.230;2024-03-17T12:58:08;18.30;51.80
11497;DHT22;5805;51.542;7.230;2024-03-17T13:00:35;18.20;52.70
11497;DHT22;5805;51.542;7.230;2024-03-17T13:03:05;18.20;52.80
11497;DHT22;5805;51.542;7.230;2024-03-17T13:05:31;18.30;51.10
11497;DHT22;5805;51.542;7.230;2024-03-17T13:07:57;18.30;50.50
11497;DHT22;5805;51.542;7.230;2024-03-17T13:10:24;18.20;50.50
11497;DHT22;5805;51.542;7.230;2024-03-17T13:13:05;18.20;50.80
11497;DHT22;5805;51.542;7.230;2024-03-17T13:15:31;18.20;50.80
11497;DHT22;5805;51.542;7.230;2024-03-17T13:18:00;18.30;51.30
11497;DHT22;5805;51.542;7.230;2024-03-17T13:20:27;18.20;51.80
11497;DHT22;5805;51.542;7.230;2024-03-17T13:22:52;18.30;51.90
11497;DHT22;5805;51.542;7.230;2024-03-17T13:25:19;18.30;51.30
11497;DHT22;5805;51.542;7.230;2024-03-17T13:27:45;18.30;51.50
11497;DHT22;5805;51.542;7.230;2024-03-17T13:30:12;18.30;52.00
11497;DHT22;5805;51.542;7.230;2024-03-17T13:32:37;18.40;52.40
11497;DHT22;5805;51.542;7.230;2024-03-17T13:35:03;18.30;52.90
11497;DHT22;5805;51.542;7.230;2024-03-17T13:37:30;18.00;52.00
11497;DHT22;5805;51.542;7.230;2024-03-17T13:39:55;18.00;52.70
11497;DHT22;5805;51.542;7.230;2024-03-17T13:42:21;18.00;53.90
11497;DHT22;5805;51.542;7.230;2024-03-17T13:44:46;18.00;54.10
11497;DHT22;5805;51.542;7.230;2024-03-17T13:47:14;17.60;51.50
11497;DHT22;5805;51.542;7.230;2024-03-17T13:49:40;17.70;52.90
11497;DHT22;5805;51.542;7.230;2024-03-17T13:52:05;17.80;52.80
11497;DHT22;5805;51.542;7.230;2024-03-17T13:54:31;17.90;53.40
11497;DHT22;5805;51.542;7.230;2024-03-17T13:56:56;17.90;52.50
11497;DHT22;5805;51.542;7.230;2024-03-17T13:59:22;17.90;52.40
11497;DHT22;5805;51.542;7.230;2024-03-17T14:01:47;17.90;52.90
11497;DHT22;5805;51.542;7.230;2024-03-17T14:04:14;17.90;51.90
11497;DHT22;5805;51.542;7.230;2024-03-17T14:06:39;17.90;52.30
11497;DHT22;5805;51.542;7.230;2024-03-17T14:09:05;17.90;52.00
11497;DHT22;5805;51.542;7.230;2024-03-17T14:11:30;17.90;51.80
11497;DHT22;5805;51.542;7.230;2024-03-17T14:13:56;17.90;52.50
11497;DHT22;5805;51.542;7.230;2024-03-17T14:16:21;17.70;52.40
11497;DHT22;5805;51.542;7.230;2024-03-17T14:18:47;17.70;53.00
11497;DHT22;5805;51.542;7.230;2024-03-17T14:21:12;17.80;52.90
11497;DHT22;5805;51.542;7.230;2024-03-17T14:23:38;17.80;52.70
11497;DHT22;5805;51.542;7.230;2024-03-17T14:26:03;17.80;53.40
11497;DHT22;5805;51.542;7.230;2024-03-17T14:28:29;17.70;52.40
11497;DHT22;5805;51.542;7.230;2024-03-17T14:30:54;17.70;52.80
11497;DHT22;5805;51.542;7.230;2024-03-17T14:33:20;17.70;53.40
11497;DHT22;5805;51.542;7.230;2024-03-17T14:35:45;17.70;52.40
11497;DHT22;5805;51.542;7.230;2024-03-17T14:38:11;17.60;52.70
11497;DHT22;5805;51.542;7.230;2024-03-17T14:40:36;17.60;53.30
11497;DHT22;5805;51.542;7.230;2024-03-17T14:43:02;17.50;53.50
11497;DHT22;5805;51.542;7.230;2024-03-17T14:45:27;17.50;54.00
11497;DHT22;5805;51.542;7.230;2024-03-17T14:47:53;17.50;53.10
11497;DHT22;5805;51.542;7.230;2024-03-17T14:50:18;17.60;52.80
11497;DHT22;5805;51.542;7.230;2024-03-17T14:52:45;17.60;52.90
11497;DHT22;5805;51.542;7.230;2024-03-17T14:55:11;17.60;53.50
11497;DHT22;5805;51.542;7.230;2024-03-17T14:57:37;17.60;52.10
11497;DHT22;5805;51.542;7.230;2024-03-17T15:00:04;17.60;52.90
11497;DHT22;5805;51.542;7.230;2024-03-17T15:02:30;17.50;51.40
11497;DHT22;5805;51.542;7.230;2024-03-17T15:04:55;17.50;52.00
11497;DHT22;5805;51.542;7.230;2024-03-17T15:07:21;17.50;52.30
11497;DHT22;5805;51.542;7.230;2024-03-17T15:09:46;17.50;51.80
11497;DHT22;5805;51.542;7.230;2024-03-17T15:12:12;17.50;52.40
11497;DHT22;5805;51.542;7.230;2024-03-17T15:14:37;17.50;51.70
11497;DHT22;5805;51.542;7.230;2024-03-17T15:17:03;17.60;51.40
11497;DHT22;5805;51.542;7.230;2024-03-17T15:19:29;17.60;51.90
11497;DHT22;5805;51.542;7.230;2024-03-17T15:21:54;17.50;51.80
11497;DHT22;5805;51.542;7.230;2024-03-17T15:24:20;17.30;51.30
11497;DHT22;5805;51.542;7.230;2024-03-17T15:29:11;17.30;51.90
11497;DHT22;5805;51.542;7.230;2024-03-17T15:31:36;17.30;52.50
11497;DHT22;5805;51.542;7.230;2024-03-17T15:34:02;17.30;52.90
11497;DHT22;5805;51.542;7.230;2024-03-17T15:36:27;17.20;51.50
11497;DHT22;5805;51.542;7.230;2024-03-17T15:38:53;17.20;51.50
11497;DHT22;5805;51.542;7.230;2024-03-17T15:41:18;17.20;51.30
11497;DHT22;5805;51.542;7.230;2024-03-17T15:43:44;17.20;52.00
11497;DHT22;5805;51.542;7.230;2024-03-17T15:46:15;17.20;51.80
11497;DHT22;5805;51.542;7.230;2024-03-17T15:48:40;17.20;51.80
11497;DHT22;5805;51.542;7.230;2024-03-17T15:51:06;17.20;51.80
11497;DHT22;5805;51.542;7.230;2024-03-17T15:53:31;17.10;51.90
11497;DHT22;5805;51.542;7.230;2024-03-17T15:55:58;17.10;51.60
11497;DHT22;5805;51.542;7.230;2024-03-17T15:58:25;17.00;51.40
11497;DHT22;5805;51.542;7.230;2024-03-17T16:00:51;17.00;52.80
11497;DHT22;5805;51.542;7.230;2024-03-17T16:03:16;16.90;52.90
11497;DHT22;5805;51.542;7.230;2024-03-17T16:05:42;16.90;53.50
11497;DHT22;5805;51.542;7.230;2024-03-17T16:08:08;17.00;52.90
11497;DHT22;5805;51.542;7.230;2024-03-17T16:10:33;17.00;52.90
11497;DHT22;5805;51.542;7.230;2024-03-17T16:12:59;17.00;53.30
11497;DHT22;5805;51.542;7.230;2024-03-17T16:15:24;17.00;53.80
11497;DHT22;5805;51.542;7.230;2024-03-17T16:17:50;17.00;53.60
11497;DHT22;5805;51.542;7.230;2024-03-17T16:20:36;17.00;54.20
11497;DHT22;5805;51.542;7.230;2024-03-17T16:23:06;17.00;53.40